sensor_id;sensor_type;location;lat;lon;timestamp;pressure;altitude;pressure_sealevel;temperature;humidity
62694;BME280;48759;52.544;13.418;2022-11-20T00:02:39;100512.31;;;2.42;100.00
62694;BME280;48759;52.544;13.418;2022-11-20T00:05:07;100509.97;;;2.21;100.00
62694;BME280;48759;52.544;13.418;2022-11-20T00:07:34;100504.00;;;2.00;100.00
62694;BME280;48759;52.544;13.418;2022-11-20T00:10:01;100502.19;;;1.65;100.00
62694;BME280;48759;52.544;13.418;2022-11-20T00:12:29;100497.06;;;1.97;100.00
62694;BME280;48759;52.544;13.418;2022-11-20T00:14:55;100506.59;;;1.66;100.00
62694;BME280;48759;52.544;13.418;2022-11-20T00:17:22;100497.72;;;1.01;100.00
62694;BME280;48759;52.544;13.418;2022-11-20T00:19:48;100500.75;;;1.61;100.00
62694;BME280;48759;52.544;13.418;2022-11-20T00:22:15;100495.59;;;1.22;100.00
62694;BME280;48759;52.544;13.418;2022-11-20T00:24:42;100498.81;;;1.35;100.00
62694;BME280;48759;52.544;13.418;2022-11-20T00:27:08;100497.91;;;1.62;100.00
62694;BME280;48759;52.544;13.418;2022-11-20T00:29:36;100497.53;;;1.75;100.00
62694;BME280;48759;52.544;13.418;2022-11-20T00:32:03;100495.03;;;1.28;100.00
62694;BME280;48759;52.544;13.418;2022-11-20T00:34:30;100496.69;;;1.29;100.00
62694;BME280;48759;52.544;13.418;2022-11-20T00:36:57;100506.53;;;1.30;100.00
62694;BME280;48759;52.544;13.418;2022-11-20T00:39:23;100501.53;;;1.35;100.00
62694;BME280;48759;52.544;13.418;2022-11-20T00:41:50;100507.44;;;1.21;100.00
62694;BME280;48759;52.544;13.418;2022-11-20T00:44:16;100506.44;;;1.22;100.00
62694;BME280;48759;52.544;13.418;2022-11-20T00:46:44;100503.19;;;1.64;100.00
62694;BME280;48759;52.544;13.418;2022-11-20T00:49:11;100499.09;;;1.60;100.00
62694;BME280;48759;52.544;13.418;2022-11-20T00:51:38;100496.41;;;2.03;100.00
62694;BME280;48759;52.544;13.418;2022-11-20T00:54:04;100497.97;;;1.88;100.00
62694;BME280;48759;52.544;13.418;2022-11-20T00:56:31;100496.06;;;1.80;100.00
62694;BME280;48759;52.544;13.418;2022-11-20T00:58:59;100496.13;;;1.71;100.00
62694;BME280;48759;52.544;13.418;2022-11-20T01:01:27;100491.63;;;1.97;100.00
62694;BME280;48759;52.544;13.418;2022-11-20T01:03:57;100501.56;;;1.71;100.00
62694;BME280;48759;52.544;13.418;2022-11-20T01:06:26;100500.72;;;1.25;100.00
62694;BME280;48759;52.544;13.418;2022-11-20T01:08:54;100500.84;;;1.69;100.00
62694;BME280;48759;52.544;13.418;2022-11-20T01:11:22;100506.13;;;1.88;100.00
62694;BME280;48759;52.544;13.418;2022-11-20T01:13:51;100496.75;;;1.65;100.00
62694;BME280;48759;52.544;13.418;2022-11-20T01:16:20;100500.63;;;1.44;100.00
62694;BME280;48759;52.544;13.418;2022-11-20T01:18:49;100501.47;;;1.80;100.00
62694;BME280;48759;52.544;13.418;2022-11-20T01:21:20;100501.63;;;2.14;100.00
62694;BME280;48759;52.544;13.418;2022-11-20T01:23:48;100498.13;;;1.69;100.00
62694;BME280;48759;52.544;13.418;2022-11-20T01:26:16;100492.63;;;1.43;100.00
62694;BME280;48759;52.544;13.418;2022-11-20T01:28:43;100494.41;;;1.87;100.00
62694;BME280;48759;52.544;13.418;2022-11-20T01:31:11;100486.19;;;1.97;100.00
62694;BME280;48759;52.544;13.418;2022-11-20T01:33:39;100490.44;;;2.43;100.00
62694;BME280;48759;52.544;13.418;2022-11-20T01:36:07;100487.13;;;2.83;100.00
62694;BME280;48759;52.544;13.418;2022-11-20T01:38:36;100485.81;;;2.36;100.00
62694;BME280;48759;52.544;13.418;2022-11-20T01:41:03;100481.94;;;1.94;100.00
62694;BME280;48759;52.544;13.418;2022-11-20T01:43:30;100486.28;;;1.70;100.00
62694;BME280;48759;52.544;13.418;2022-11-20T01:48:45;100480.25;;;1.76;100.00
62694;BME280;48759;52.544;13.418;2022-11-20T01:51:23;100484.50;;;1.61;100.00
62694;BME280;48759;52.544;13.418;2022-11-20T01:53:54;100479.91;;;2.14;100.00
62694;BME280;48759;52.544;13.418;2022-11-20T01:56:22;100471.00;;;2.04;100.00
62694;BME280;48759;52.544;13.418;2022-11-20T01:58:51;100482.19;;;2.53;100.00
62694;BME280;48759;52.544;13.418;2022-11-20T02:01:20;100483.78;;;2.12;100.00
62694;BME280;48759;52.544;13.418;2022-11-20T02:03:48;100476.59;;;1.67;100.00
62694;BME280;48759;52.544;13.418;2022-11-20T02:06:19;100477.75;;;1.65;100.00
62694;BME280;48759;52.544;13.418;2022-11-20T02:08:49;100473.41;;;1.72;100.00
62694;BME280;48759;52.544;13.418;2022-11-20T02:11:18;100472.91;;;2.12;100.00
62694;BME280;48759;52.544;13.418;2022-11-20T02:13:45;100472.00;;;2.03;100.00
62694;BME280;48759;52.544;13.418;2022-11-20T02:16:15;100464.50;;;1.97;100.00
62694;BME280;48759;52.544;13.418;2022-11-20T02:18:42;100467.91;;;1.64;100.00
62694;BME280;48759;52.544;13.418;2022-11-20T02:21:15;100457.84;;;1.74;100.00
62694;BME280;48759;52.544;13.418;2022-11-20T02:24:04;100460.16;;;1.33;100.00
62694;BME280;48759;52.544;13.418;2022-11-20T02:26:34;100462.00;;;1.33;100.00
62694;BME280;48759;52.544;13.418;2022-11-20T02:29:03;100457.06;;;1.28;100.00
62694;BME280;48759;52.544;13.418;2022-11-20T02:31:36;100464.06;;;1.66;100.00
62694;BME280;48759;52.544;13.418;2022-11-20T02:34:03;100460.63;;;1.64;100.00
62694;BME280;48759;52.544;13.418;2022-11-20T02:36:32;100465.53;;;1.43;100.00
62694;BME280;48759;52.544;13.418;2022-11-20T02:38:59;100462.19;;;1.49;100.00
62694;BME280;48759;52.544;13.418;2022-11-20T02:41:35;100466.03;;;1.46;100.00
62694;BME280;48759;52.544;13.418;2022-11-20T02:44:04;100459.41;;;1.59;100.00
62694;BME280;48759;52.544;13.418;2022-11-20T02:46:31;100458.91;;;1.45;100.00
62694;BME280;48759;52.544;13.418;2022-11-20T02:48:58;100460.00;;;1.52;100.00
62694;BME280;48759;52.544;13.418;2022-11-20T02:51:25;100457.06;;;1.28;100.00
62694;BME280;48759;52.544;13.418;2022-11-20T02:53:51;100467.91;;;1.64;100.00
62694;BME280;48759;52.544;13.418;2022-11-20T02:56:18;100457.50;;;1.77;100.00
62694;BME280;48759;52.544;13.418;2022-11-20T02:58:46;100455.94;;;1.03;100.00
62694;BME280;48759;52.544;13.418;2022-11-20T03:01:13;100460.00;;;1.52;100.00
62694;BME280;48759;52.544;13.418;2022-11-20T03:03:39;100454.66;;;1.78;100.00
62694;BME280;48759;52.544;13.418;2022-11-20T03:06:06;100461.19;;;2.11;100.00
62694;BME280;48759;52.544;13.418;2022-11-20T03:08:35;100454.88;;;1.85;100.00
62694;BME280;48759;52.544;13.418;2022-11-20T03:11:03;100457.28;;;1.88;100.00
62694;BME280;48759;52.544;13.418;2022-11-20T03:13:31;100449.91;;;1.98;100.00
62694;BME280;48759;52.544;13.418;2022-11-20T03:16:05;100456.59;;;1.86;100.00
62694;BME280;48759;52.544;13.418;2022-11-20T03:18:32;100453.22;;;1.92;100.00
62694;BME280;48759;52.544;13.418;2022-11-20T03:20:58;100447.69;;;2.19;100.00
62694;BME280;48759;52.544;13.418;2022-11-20T03:23:25;100442.50;;;2.08;100.00
62694;BME280;48759;52.544;13.418;2022-11-20T03:25:52;100442.00;;;1.87;100.00
62694;BME280;48759;52.544;13.418;2022-11-20T03:28:19;100445.16;;;2.00;100.00
62694;BME280;48759;52.544;13.418;2022-11-20T03:30:45;100434.88;;;1.86;100.00
62694;BME280;48759;52.544;13.418;2022-11-20T03:33:14;100434.44;;;1.73;100.00
62694;BME280;48759;52.544;13.418;2022-11-20T03:35:40;100436.00;;;1.58;100.00
62694;BME280;48759;52.544;13.418;2022-11-20T03:38:07;100436.59;;;1.87;100.00
62694;BME280;48759;52.544;13.418;2022-11-20T03:40:34;100434.44;;;1.37;100.00
62694;BME280;48759;52.544;13.418;2022-11-20T03:43:01;100432.59;;;1.20;100.00
62694;BME280;48759;52.544;13.418;2022-11-20T03:45:27;100432.50;;;1.30;100.00
62694;BME280;48759;52.544;13.418;2022-11-20T03:47:54;100434.06;;;1.32;100.00
62694;BME280;48759;52.544;13.418;2022-11-20T03:50:22;100429.50;;;1.50;100.00
62694;BME280;48759;52.544;13.418;2022-11-20T03:52:49;100426.38;;;1.45;100.00
62694;BME280;48759;52.544;13.418;2022-11-20T03:55:16;100425.28;;;1.74;100.00
62694;BME280;48759;52.544;13.418;2022-11-20T03:57:42;100430.00;;;1.89;100.00
62694;BME280;48759;52.544;13.418;2022-11-20T04:00:10;100438.06;;;1.99;100.00
62694;BME280;48759;52.544;13.418;2022-11-20T04:02:37;100429.31;;;1.70;100.00
62694;BME280;48759;52.544;13.418;2022-11-20T04:05:04;100425.31;;;2.00;100.00
62694;BME280;48759;52.544;13.418;2022-11-20T04:07:33;100426.75;;;1.86;100.00
62694;BME280;48759;52.544;13.418;2022-11-20T04:10:00;100424.81;;;1.61;100.00
62694;BME280;48759;52.544;13.418;2022-11-20T04:12:27;100417.38;;;1.63;100.00
62694;BME280;48759;52.544;13.418;2022-11-20T04:14:54;100420.34;;;1.51;100.00
62694;BME280;48759;52.544;13.418;2022-11-20T04:17:20;100420.66;;;1.66;100.00
62694;BME280;48759;52.544;13.418;2022-11-20T04:19:47;100421.59;;;1.39;100.00
62694;BME280;48759;52.544;13.418;2022-11-20T04:22:13;100428.56;;;1.60;100.00
62694;BME280;48759;52.544;13.418;2022-11-20T04:24:41;100419.50;;;1.51;100.00
62694;BME280;48759;52.544;13.418;2022-11-20T04:27:08;100429.88;;;1.38;100.00
62694;BME280;48759;52.544;13.418;2022-11-20T04:29:35;100428.06;;;1.82;100.00
62694;BME280;48759;52.544;13.418;2022-11-20T04:32:01;100425.91;;;1.32;100.00
62694;BME280;48759;52.544;13.418;2022-11-20T04:34:28;100425.81;;;1.77;100.00
62694;BME280;48759;52.544;13.418;2022-11-20T04:36:54;100430.47;;;1.85;100.00
62694;BME280;48759;52.544;13.418;2022-11-20T04:39:21;100428.81;;;1.92;100.00
62694;BME280;48759;52.544;13.418;2022-11-20T04:41:49;100422.13;;;1.25;100.00
62694;BME280;48759;52.544;13.418;2022-11-20T04:44:36;100420.31;;;1.87;100.00
62694;BME280;48759;52.544;13.418;2022-11-20T04:47:03;100418.94;;;1.47;100.00
62694;BME280;48759;52.544;13.418;2022-11-20T04:49:29;100424.91;;;1.33;100.00
62694;BME280;48759;52.544;13.418;2022-11-20T04:51:57;100416.78;;;1.51;100.00
62694;BME280;48759;52.544;13.418;2022-11-20T04:54:23;100413.50;;;1.83;100.00
62694;BME280;48759;52.544;13.418;2022-11-20T04:56:51;100414.53;;;1.64;100.00
62694;BME280;48759;52.544;13.418;2022-11-20T04:59:18;100412.19;;;1.69;100.00
62694;BME280;48759;52.544;13.418;2022-11-20T05:01:45;100411.00;;;1.28;100.00
62694;BME280;48759;52.544;13.418;2022-11-20T05:04:11;100417.41;;;1.27;100.00
62694;BME280;48759;52.544;13.418;2022-11-20T05:06:38;100399.38;;;0.91;100.00
62694;BME280;48759;52.544;13.418;2022-11-20T05:09:05;100401.81;;;1.29;100.00
62694;BME280;48759;52.544;13.418;2022-11-20T05:11:33;100397.81;;;1.51;100.00
62694;BME280;48759;52.544;13.418;2022-11-20T05:14:01;100394.06;;;1.70;100.00
62694;BME280;48759;52.544;13.418;2022-11-20T05:16:28;100402.06;;;1.18;100.00
62694;BME280;48759;52.544;13.418;2022-11-20T05:18:55;100396.47;;;1.37;100.00
62694;BME280;48759;52.544;13.418;2022-11-20T05:21:22;100395.84;;;1.08;100.00
62694;BME280;48759;52.544;13.418;2022-11-20T05:23:49;100390.47;;;1.43;100.00
62694;BME280;48759;52.544;13.418;2022-11-20T05:26:17;100386.88;;;1.25;100.00
62694;BME280;48759;52.544;13.418;2022-11-20T05:28:44;100387.97;;;1.32;100.00
62694;BME280;48759;52.544;13.418;2022-11-20T05:31:15;100388.25;;;1.65;100.00
62694;BME280;48759;52.544;13.418;2022-11-20T05:33:42;100388.50;;;1.53;100.00
62694;BME280;48759;52.544;13.418;2022-11-20T05:36:10;100385.00;;;1.08;100.00
62694;BME280;48759;52.544;13.418;2022-11-20T05:38:37;100388.88;;;1.23;100.00
62694;BME280;48759;52.544;13.418;2022-11-20T05:41:05;100386.38;;;1.83;100.00
62694;BME280;48759;52.544;13.418;2022-11-20T05:43:33;100389.44;;;1.27;100.00
62694;BME280;48759;52.544;13.418;2022-11-20T05:46:01;100383.81;;;1.20;100.00
62694;BME280;48759;52.544;13.418;2022-11-20T05:48:29;100383.31;;;1.42;100.00
62694;BME280;48759;52.544;13.418;2022-11-20T05:50:56;100383.13;;;1.62;100.00
62694;BME280;48759;52.544;13.418;2022-11-20T05:53:24;100374.41;;;1.32;100.00
62694;BME280;48759;52.544;13.418;2022-11-20T05:55:57;100376.97;;;1.51;100.00
62694;BME280;48759;52.544;13.418;2022-11-20T05:58:24;100379.16;;;2.00;100.00
62694;BME280;48759;52.544;13.418;2022-11-20T06:00:51;100376.59;;;1.90;100.00
62694;BME280;48759;52.544;13.418;2022-11-20T06:03:18;100375.63;;;1.55;100.00
62694;BME280;48759;52.544;13.418;2022-11-20T06:05:46;100372.31;;;1.87;100.00
62694;BME280;48759;52.544;13.418;2022-11-20T06:08:13;100377.50;;;1.37;100.00
62694;BME280;48759;52.544;13.418;2022-11-20T06:10:39;100372.28;;;1.62;100.00
62694;BME280;48759;52.544;13.418;2022-11-20T06:13:09;100369.13;;;1.92;100.00
62694;BME280;48759;52.544;13.418;2022-11-20T06:15:35;100368.66;;;1.97;100.00
62694;BME280;48759;52.544;13.418;2022-11-20T06:18:02;100366.16;;;2.03;100.00
62694;BME280;48759;52.544;13.418;2022-11-20T06:20:29;100366.28;;;2.27;100.00
62694;BME280;48759;52.544;13.418;2022-11-20T06:23:02;100367.03;;;1.86;100.00
62694;BME280;48759;52.544;13.418;2022-11-20T06:25:32;100368.50;;;1.54;100.00
62694;BME280;48759;52.544;13.418;2022-11-20T06:27:59;100372.16;;;1.45;100.00
62694;BME280;48759;52.544;13.418;2022-11-20T06:30:26;100375.25;;;1.94;100.00
62694;BME280;48759;52.544;13.418;2022-11-20T06:32:54;100379.13;;;1.66;100.00
62694;BME280;48759;52.544;13.418;2022-11-20T06:35:20;100373.22;;;1.52;100.00
62694;BME280;48759;52.544;13.418;2022-11-20T06:37:47;100368.91;;;1.85;100.00
62694;BME280;48759;52.544;13.418;2022-11-20T06:40:15;100367.00;;;1.78;100.00
62694;BME280;48759;52.544;13.418;2022-11-20T06:42:42;100367.69;;;2.06;100.00
62694;BME280;48759;52.544;13.418;2022-11-20T06:45:09;100374.88;;;1.89;100.00
62694;BME280;48759;52.544;13.418;2022-11-20T06:47:36;100364.66;;;1.83;100.00
62694;BME280;48759;52.544;13.418;2022-11-20T06:50:03;100363.25;;;1.79;100.00
62694;BME280;48759;52.544;13.418;2022-11-20T06:52:33;100362.31;;;1.88;100.00
62694;BME280;48759;52.544;13.418;2022-11-20T06:55:00;100362.00;;;1.91;100.00
62694;BME280;48759;52.544;13.418;2022-11-20T06:57:28;100367.09;;;1.94;100.00
62694;BME280;48759;52.544;13.418;2022-11-20T06:59:55;100356.31;;;2.02;100.00
62694;BME280;48759;52.544;13.418;2022-11-20T07:02:23;100362.81;;;1.83;100.00
62694;BME280;48759;52.544;13.418;2022-11-20T07:04:49;100356.34;;;1.59;100.00
62694;BME280;48759;52.544;13.418;2022-11-20T07:07:17;100355.19;;;1.87;100.00
62694;BME280;48759;52.544;13.418;2022-11-20T07:09:43;100355.00;;;2.06;100.00
62694;BME280;48759;52.544;13.418;2022-11-20T07:12:10;100351.56;;;2.30;100.00
62694;BME280;48759;52.544;13.418;2022-11-20T07:14:38;100364.13;;;2.05;100.00
62694;BME280;48759;52.544;13.418;2022-11-20T07:17:05;100368.25;;;2.17;100.00
62694;BME280;48759;52.544;13.418;2022-11-20T07:19:31;100366.34;;;2.36;100.00
62694;BME280;48759;52.544;13.418;2022-11-20T07:21:58;100365.00;;;2.06;100.00
62694;BME280;48759;52.544;13.418;2022-11-20T07:24:25;100367.53;;;1.81;100.00
62694;BME280;48759;52.544;13.418;2022-11-20T07:26:51;100364.41;;;1.50;100.00
62694;BME280;48759;52.544;13.418;2022-11-20T07:29:18;100366.56;;;1.65;100.00
62694;BME280;48759;52.544;13.418;2022-11-20T07:31:46;100365.72;;;1.90;100.00
62694;BME280;48759;52.544;13.418;2022-11-20T07:34:13;100364.97;;;1.80;100.00
62694;BME280;48759;52.544;13.418;2022-11-20T07:36:39;100367.47;;;1.73;100.00
62694;BME280;48759;52.544;13.418;2022-11-20T07:39:06;100362.53;;;1.94;100.00
62694;BME280;48759;52.544;13.418;2022-11-20T07:41:33;100359.91;;;1.85;100.00
62694;BME280;48759;52.544;13.418;2022-11-20T07:44:00;100366.66;;;1.55;100.00
62694;BME280;48759;52.544;13.418;2022-11-20T07:46:27;100359.88;;;2.03;100.00
62694;BME280;48759;52.544;13.418;2022-11-20T07:48:55;100354.28;;;2.04;100.00
62694;BME280;48759;52.544;13.418;2022-11-20T07:51:23;100354.50;;;1.85;100.00
62694;BME280;48759;52.544;13.418;2022-11-20T07:53:51;100346.69;;;1.82;100.00
62694;BME280;48759;52.544;13.418;2022-11-20T07:56:17;100350.34;;;2.32;100.00
62694;BME280;48759;52.544;13.418;2022-11-20T07:58:45;100350.06;;;2.10;100.00
62694;BME280;48759;52.544;13.418;2022-11-20T08:01:11;100354.53;;;2.19;100.00
62694;BME280;48759;52.544;13.418;2022-11-20T08:03:38;100348.56;;;2.49;100.00
62694;BME280;48759;52.544;13.418;2022-11-20T08:06:07;100346.81;;;2.82;100.00
62694;BME280;48759;52.544;13.418;2022-11-20T08:08:34;100349.44;;;2.58;100.00
62694;BME280;48759;52.544;13.418;2022-11-20T08:11:01;100345.06;;;2.65;100.00
62694;BME280;48759;52.544;13.418;2022-11-20T08:13:41;100345.13;;;2.81;100.00
62694;BME280;48759;52.544;13.418;2022-11-20T08:16:26;100345.72;;;1.91;100.00
62694;BME280;48759;52.544;13.418;2022-11-20T08:18:53;100340.88;;;2.37;100.00
62694;BME280;48759;52.544;13.418;2022-11-20T08:21:21;100336.63;;;2.76;100.00
62694;BME280;48759;52.544;13.418;2022-11-20T08:23:48;100347.75;;;2.57;100.00
62694;BME280;48759;52.544;13.418;2022-11-20T08:26:14;100338.53;;;2.42;100.00
62694;BME280;48759;52.544;13.418;2022-11-20T08:28:41;100341.97;;;1.92;100.00
62694;BME280;48759;52.544;13.418;2022-11-20T08:31:09;100341.78;;;2.11;100.00
62694;BME280;48759;52.544;13.418;2022-11-20T08:33:36;100344.22;;;1.71;100.00
62694;BME280;48759;52.544;13.418;2022-11-20T08:36:03;100339.22;;;1.84;100.00
62694;BME280;48759;52.544;13.418;2022-11-20T08:38:32;100333.13;;;2.16;100.00
62694;BME280;48759;52.544;13.418;2022-11-20T08:41:00;100328.47;;;2.00;100.00
62694;BME280;48759;52.544;13.418;2022-11-20T08:43:44;100323.78;;;2.10;100.00
62694;BME280;48759;52.544;13.418;2022-11-20T08:46:12;100328.72;;;2.57;100.00
62694;BME280;48759;52.544;13.418;2022-11-20T08:48:39;100324.00;;;2.59;100.00
62694;BME280;48759;52.544;13.418;2022-11-20T08:51:06;100326.06;;;2.73;100.00
62694;BME280;48759;52.544;13.418;2022-11-20T08:53:34;100320.25;;;2.52;100.00
62694;BME280;48759;52.544;13.418;2022-11-20T08:56:01;100327.00;;;2.48;100.00
62694;BME280;48759;52.544;13.418;2022-11-20T08:58:28;100329.84;;;2.30;100.00
62694;BME280;48759;52.544;13.418;2022-11-20T09:00:56;100327.16;;;2.38;100.00
62694;BME280;48759;52.544;13.418;2022-11-20T09:03:34;100337.22;;;2.54;100.00
62694;BME280;48759;52.544;13.418;2022-11-20T09:06:05;100332.03;;;2.35;100.00
62694;BME280;48759;52.544;13.418;2022-11-20T09:08:32;100339.41;;;2.16;100.00
62694;BME280;48759;52.544;13.418;2022-11-20T09:11:00;100344.22;;;2.22;100.00
62694;BME280;48759;52.544;13.418;2022-11-20T09:13:32;100341.97;;;1.92;100.00
62694;BME280;48759;52.544;13.418;2022-11-20T09:16:01;100341.78;;;2.11;100.00
62694;BME280;48759;52.544;13.418;2022-11-20T09:18:32;100339.31;;;1.48;100.00
62694;BME280;48759;52.544;13.418;2022-11-20T09:21:02;100343.13;;;2.07;100.00
62694;BME280;48759;52.544;13.418;2022-11-20T09:23:32;100341.59;;;2.47;100.00
62694;BME280;48759;52.544;13.418;2022-11-20T09:26:03;100333.09;;;2.42;100.00
62694;BME280;48759;52.544;13.418;2022-11-20T09:28:30;100339.63;;;2.65;100.00
62694;BME280;48759;52.544;13.418;2022-11-20T09:30:57;100342.22;;;2.75;100.00
62694;BME280;48759;52.544;13.418;2022-11-20T09:33:23;100346.13;;;2.80;100.00
62694;BME280;48759;52.544;13.418;2022-11-20T09:35:50;100346.94;;;3.31;100.00
62694;BME280;48759;52.544;13.418;2022-11-20T09:38:17;100340.53;;;2.40;100.00
62694;BME280;48759;52.544;13.418;2022-11-20T09:40:46;100341.28;;;2.50;100.00
62694;BME280;48759;52.544;13.418;2022-11-20T09:43:19;100337.69;;;2.99;100.00
62694;BME280;48759;52.544;13.418;2022-11-20T09:48:45;100333.06;;;2.84;100.00
62694;BME280;48759;52.544;13.418;2022-11-20T09:51:23;100323.72;;;2.94;100.00
62694;BME280;48759;52.544;13.418;2022-11-20T09:54:06;100321.38;;;2.99;100.00
62694;BME280;48759;52.544;13.418;2022-11-20T09:56:37;100324.78;;;3.18;100.00
62694;BME280;48759;52.544;13.418;2022-11-20T09:59:12;100326.84;;;3.80;97.28
62694;BME280;48759;52.544;13.418;2022-11-20T10:01:40;100337.38;;;3.92;95.98
62694;BME280;48759;52.544;13.418;2022-11-20T10:04:12;100328.19;;;3.93;92.73
62694;BME280;48759;52.544;13.418;2022-11-20T10:06:48;100320.06;;;3.76;92.80
62694;BME280;48759;52.544;13.418;2022-11-20T10:09:22;100313.56;;;3.04;98.65
62694;BME280;48759;52.544;13.418;2022-11-20T10:12:02;100318.69;;;3.16;100.00
62694;BME280;48759;52.544;13.418;2022-11-20T10:14:41;100322.53;;;4.10;92.65
62694;BME280;48759;52.544;13.418;2022-11-20T10:17:21;100315.81;;;3.17;97.50
62694;BME280;48759;52.544;13.418;2022-11-20T10:20:02;100311.19;;;2.93;100.00
62694;BME280;48759;52.544;13.418;2022-11-20T10:22:53;100308.28;;;3.11;100.00
62694;BME280;48759;52.544;13.418;2022-11-20T10:25:28;100306.81;;;3.25;100.00
62694;BME280;48759;52.544;13.418;2022-11-20T10:28:10;100297.25;;;2.96;98.34
62694;BME280;48759;52.544;13.418;2022-11-20T10:30:45;100303.94;;;3.34;98.47
62694;BME280;48759;52.544;13.418;2022-11-20T10:33:17;100290.47;;;3.00;100.00
62694;BME280;48759;52.544;13.418;2022-11-20T10:35:50;100293.50;;;2.89;100.00
62694;BME280;48759;52.544;13.418;2022-11-20T10:38:23;100286.34;;;2.88;100.00
62694;BME280;48759;52.544;13.418;2022-11-20T10:40:54;100284.47;;;2.81;100.00
62694;BME280;48759;52.544;13.418;2022-11-20T10:43:44;100281.06;;;2.79;100.00
62694;BME280;48759;52.544;13.418;2022-11-20T10:46:16;100287.81;;;3.33;100.00
62694;BME280;48759;52.544;13.418;2022-11-20T10:48:45;100277.53;;;3.19;100.00
62694;BME280;48759;52.544;13.418;2022-11-20T10:51:18;100274.84;;;3.43;99.64
62694;BME280;48759;52.544;13.418;2022-11-20T10:53:56;100282.63;;;3.87;97.77
62694;BME280;48759;52.544;13.418;2022-11-20T10:56:31;100276.47;;;3.93;95.20
62694;BME280;48759;52.544;13.418;2022-11-20T10:59:14;100281.94;;;3.84;94.06
62694;BME280;48759;52.544;13.418;2022-11-20T11:01:52;100286.47;;;4.47;88.00
62694;BME280;48759;52.544;13.418;2022-11-20T11:04:33;100293.88;;;4.31;87.16
62694;BME280;48759;52.544;13.418;2022-11-20T11:07:06;100281.75;;;4.41;87.27
62694;BME280;48759;52.544;13.418;2022-11-20T11:09:53;100291.75;;;4.10;86.32
62694;BME280;48759;52.544;13.418;2022-11-20T11:12:24;100287.09;;;4.27;87.29
62694;BME280;48759;52.544;13.418;2022-11-20T11:14:58;100282.25;;;3.90;88.28
62694;BME280;48759;52.544;13.418;2022-11-20T11:17:29;100284.03;;;3.42;94.17
62694;BME280;48759;52.544;13.418;2022-11-20T11:20:03;100283.50;;;3.63;93.30
62694;BME280;48759;52.544;13.418;2022-11-20T11:22:43;100287.78;;;3.25;91.49
62694;BME280;48759;52.544;13.418;2022-11-20T11:25:29;100272.47;;;3.07;98.13
62694;BME280;48759;52.544;13.418;2022-11-20T11:28:03;100285.38;;;3.22;97.38
62694;BME280;48759;52.544;13.418;2022-11-20T11:30:42;100280.28;;;3.27;98.50
62694;BME280;48759;52.544;13.418;2022-11-20T11:33:21;100269.22;;;3.20;99.51
62694;BME280;48759;52.544;13.418;2022-11-20T11:35:49;100265.50;;;3.37;99.34
62694;BME280;48759;52.544;13.418;2022-11-20T11:38:28;100263.16;;;2.36;100.00
62694;BME280;48759;52.544;13.418;2022-11-20T11:40:58;100260.91;;;3.05;100.00
62694;BME280;48759;52.544;13.418;2022-11-20T11:43:27;100259.19;;;3.29;100.00
62694;BME280;48759;52.544;13.418;2022-11-20T11:46:28;100263.47;;;3.39;99.21
62694;BME280;48759;52.544;13.418;2022-11-20T11:49:08;100259.03;;;2.90;100.00
62694;BME280;48759;52.544;13.418;2022-11-20T11:51:59;100260.88;;;2.89;100.00
62694;BME280;48759;52.544;13.418;2022-11-20T11:54:34;100262.59;;;3.06;100.00
62694;BME280;48759;52.544;13.418;2022-11-20T11:57:08;100259.16;;;2.72;100.00
62694;BME280;48759;52.544;13.418;2022-11-20T11:59:46;100253.97;;;2.28;100.00
62694;BME280;48759;52.544;13.418;2022-11-20T12:02:29;100256.63;;;2.87;100.00
62694;BME280;48759;52.544;13.418;2022-11-20T12:05:03;100258.88;;;1.83;100.00
62694;BME280;48759;52.544;13.418;2022-11-20T12:07:39;100256.88;;;2.35;100.00
62694;BME280;48759;52.544;13.418;2022-11-20T12:10:15;100251.03;;;1.54;100.00
62694;BME280;48759;52.544;13.418;2022-11-20T12:12:45;100251.88;;;1.80;100.00
62694;BME280;48759;52.544;13.418;2022-11-20T12:15:25;100245.31;;;1.83;100.00
62694;BME280;48759;52.544;13.418;2022-11-20T12:17:52;100246.75;;;2.03;100.00
62694;BME280;48759;52.544;13.418;2022-11-20T12:20:22;100251.63;;;1.91;100.00
62694;BME280;48759;52.544;13.418;2022-11-20T12:23:13;100244.06;;;2.11;100.00
62694;BME280;48759;52.544;13.418;2022-11-20T12:25:48;100240.31;;;2.04;100.00
62694;BME280;48759;52.544;13.418;2022-11-20T12:28:31;100234.81;;;2.38;100.00
62694;BME280;48759;52.544;13.418;2022-11-20T12:31:29;100229.81;;;2.84;100.00
62694;BME280;48759;52.544;13.418;2022-11-20T12:34:08;100233.00;;;2.63;100.00
62694;BME280;48759;52.544;13.418;2022-11-20T12:36:45;100235.31;;;2.33;100.00
62694;BME280;48759;52.544;13.418;2022-11-20T12:39:25;100227.72;;;2.53;100.00
62694;BME280;48759;52.544;13.418;2022-11-20T12:42:05;100226.25;;;2.99;100.00
62694;BME280;48759;52.544;13.418;2022-11-20T12:45:28;100219.41;;;1.97;100.00
62694;BME280;48759;52.544;13.418;2022-11-20T12:48:20;100222.81;;;2.73;100.00
62694;BME280;48759;52.544;13.418;2022-11-20T12:51:04;100219.22;;;2.56;100.00
62694;BME280;48759;52.544;13.418;2022-11-20T12:53:40;100223.38;;;3.17;100.00
62694;BME280;48759;52.544;13.418;2022-11-20T12:56:19;100213.31;;;3.34;100.00
62694;BME280;48759;52.544;13.418;2022-11-20T12:59:03;100208.91;;;3.17;100.00
62694;BME280;48759;52.544;13.418;2022-11-20T13:01:38;100213.84;;;2.97;100.00
62694;BME280;48759;52.544;13.418;2022-11-20T13:04:15;100208.72;;;3.02;100.00